sensor_id;sensor_type;location;lat;lon;timestamp;temperature;humidity
32476;DHT22;18929;48.008;10.882;2022-09-23T00:00:03;11.50;99.90
32476;DHT22;18929;48.008;10.882;2022-09-23T00:02:30;11.50;99.90
32476;DHT22;18929;48.008;10.882;2022-09-23T00:04:57;11.50;99.90
32476;DHT22;18929;48.008;10.882;2022-09-23T00:07:24;11.40;99.90
32476;DHT22;18929;48.008;10.882;2022-09-23T00:09:51;11.50;99.90
32476;DHT22;18929;48.008;10.882;2022-09-23T00:12:21;11.40;99.90
32476;DHT22;18929;48.008;10.882;2022-09-23T00:14:48;11.40;99.90
32476;DHT22;18929;48.008;10.882;2022-09-23T00:17:16;11.40;99.90
32476;DHT22;18929;48.008;10.882;2022-09-23T00:19:43;11.30;99.90
32476;DHT22;18929;48.008;10.882;2022-09-23T00:22:10;11.30;99.90
32476;DHT22;18929;48.008;10.882;2022-09-23T00:24:38;11.30;99.90
32476;DHT22;18929;48.008;10.882;2022-09-23T00:27:05;11.30;99.90
32476;DHT22;18929;48.008;10.882;2022-09-23T00:29:32;11.30;99.90
32476;DHT22;18929;48.008;10.882;2022-09-23T00:32:01;11.30;99.90
32476;DHT22;18929;48.008;10.882;2022-09-23T00:34:29;11.20;99.90
32476;DHT22;18929;48.008;10.882;2022-09-23T00:36:56;11.20;99.90
32476;DHT22;18929;48.008;10.882;2022-09-23T00:39:23;11.20;99.90
32476;DHT22;18929;48.008;10.882;2022-09-23T00:41:51;11.10;99.90
32476;DHT22;18929;48.008;10.882;2022-09-23T00:47:21;11.00;99.90
32476;DHT22;18929;48.008;10.882;2022-09-23T00:49:55;11.10;99.90
32476;DHT22;18929;48.008;10.882;2022-09-23T00:52:26;11.10;99.90
32476;DHT22;18929;48.008;10.882;2022-09-23T00:54:55;11.20;99.90
32476;DHT22;18929;48.008;10.882;2022-09-23T00:57:24;11.10;99.90
32476;DHT22;18929;48.008;10.882;2022-09-23T00:59:51;11.00;99.90
32476;DHT22;18929;48.008;10.882;2022-09-23T01:02:19;11.00;99.90
32476;DHT22;18929;48.008;10.882;2022-09-23T01:04:47;11.00;99.90
32476;DHT22;18929;48.008;10.882;2022-09-23T01:07:16;11.00;99.90
32476;DHT22;18929;48.008;10.882;2022-09-23T01:09:43;11.00;99.90
32476;DHT22;18929;48.008;10.882;2022-09-23T01:12:23;11.00;99.90
32476;DHT22;18929;48.008;10.882;2022-09-23T01:14:58;10.90;99.90
32476;DHT22;18929;48.008;10.882;2022-09-23T01:17:35;10.90;99.90
32476;DHT22;18929;48.008;10.882;2022-09-23T01:23:12;10.90;99.90
32476;DHT22;18929;48.008;10.882;2022-09-23T01:26:04;10.80;99.90
32476;DHT22;18929;48.008;10.882;2022-09-23T01:29:00;10.70;99.90
32476;DHT22;18929;48.008;10.882;2022-09-23T01:31:34;10.60;99.90
32476;DHT22;18929;48.008;10.882;2022-09-23T01:34:07;10.40;99.90
32476;DHT22;18929;48.008;10.882;2022-09-23T01:36:40;10.60;99.90
32476;DHT22;18929;48.008;10.882;2022-09-23T01:39:13;10.60;99.90
32476;DHT22;18929;48.008;10.882;2022-09-23T01:41:51;10.70;99.90
32476;DHT22;18929;48.008;10.882;2022-09-23T01:44:26;10.70;99.90
32476;DHT22;18929;48.008;10.882;2022-09-23T01:46:58;10.70;99.90
32476;DHT22;18929;48.008;10.882;2022-09-23T01:49:28;10.80;99.90
32476;DHT22;18929;48.008;10.882;2022-09-23T01:51:58;10.60;99.90
32476;DHT22;18929;48.008;10.882;2022-09-23T01:54:29;10.70;99.90
32476;DHT22;18929;48.008;10.882;2022-09-23T01:57:01;10.60;99.90
32476;DHT22;18929;48.008;10.882;2022-09-23T01:59:33;10.60;99.90
32476;DHT22;18929;48.008;10.882;2022-09-23T02:02:05;10.60;99.90
32476;DHT22;18929;48.008;10.882;2022-09-23T02:04:37;10.50;99.90
32476;DHT22;18929;48.008;10.882;2022-09-23T02:07:10;10.40;99.90
32476;DHT22;18929;48.008;10.882;2022-09-23T02:09:43;10.60;99.90
32476;DHT22;18929;48.008;10.882;2022-09-23T02:12:15;10.50;99.90
32476;DHT22;18929;48.008;10.882;2022-09-23T02:14:49;10.50;99.90
32476;DHT22;18929;48.008;10.882;2022-09-23T02:17:24;10.50;99.90
32476;DHT22;18929;48.008;10.882;2022-09-23T02:19:55;10.40;99.90
32476;DHT22;18929;48.008;10.882;2022-09-23T02:22:26;10.50;99.90
32476;DHT22;18929;48.008;10.882;2022-09-23T02:24:54;10.50;99.90
32476;DHT22;18929;48.008;10.882;2022-09-23T02:27:27;10.40;99.90
32476;DHT22;18929;48.008;10.882;2022-09-23T02:30:01;10.40;99.90
32476;DHT22;18929;48.008;10.882;2022-09-23T02:32:33;10.30;99.90
32476;DHT22;18929;48.008;10.882;2022-09-23T02:35:10;10.40;99.90
32476;DHT22;18929;48.008;10.882;2022-09-23T02:37:45;10.40;99.90
32476;DHT22;18929;48.008;10.882;2022-09-23T02:40:19;10.40;99.90
32476;DHT22;18929;48.008;10.882;2022-09-23T02:42:55;10.40;99.90
32476;DHT22;18929;48.008;10.882;2022-09-23T02:45:27;10.40;99.90
32476;DHT22;18929;48.008;10.882;2022-09-23T02:47:59;10.20;99.90
32476;DHT22;18929;48.008;10.882;2022-09-23T02:50:27;10.30;99.90
32476;DHT22;18929;48.008;10.882;2022-09-23T02:52:55;10.30;99.90
32476;DHT22;18929;48.008;10.882;2022-09-23T02:55:24;10.30;99.90
32476;DHT22;18929;48.008;10.882;2022-09-23T02:57:52;10.20;99.90
32476;DHT22;18929;48.008;10.882;2022-09-23T03:00:19;10.20;99.90
32476;DHT22;18929;48.008;10.882;2022-09-23T03:02:59;10.20;99.90
32476;DHT22;18929;48.008;10.882;2022-09-23T03:05:33;10.20;99.90
32476;DHT22;18929;48.008;10.882;2022-09-23T03:08:10;10.20;99.90
32476;DHT22;18929;48.008;10.882;2022-09-23T03:10:50;10.30;99.90
32476;DHT22;18929;48.008;10.882;2022-09-23T03:13:29;10.20;99.90
32476;DHT22;18929;48.008;10.882;2022-09-23T03:16:07;10.10;99.90
32476;DHT22;18929;48.008;10.882;2022-09-23T03:18:40;10.00;99.90
32476;DHT22;18929;48.008;10.882;2022-09-23T03:21:12;10.10;99.90
32476;DHT22;18929;48.008;10.882;2022-09-23T03:23:41;10.20;99.90
32476;DHT22;18929;48.008;10.882;2022-09-23T03:26:21;10.20;99.90
32476;DHT22;18929;48.008;10.882;2022-09-23T03:28:49;10.10;99.90
32476;DHT22;18929;48.008;10.882;2022-09-23T03:31:17;10.10;99.90
32476;DHT22;18929;48.008;10.882;2022-09-23T03:33:47;10.20;99.90
32476;DHT22;18929;48.008;10.882;2022-09-23T03:36:18;10.00;99.90
32476;DHT22;18929;48.008;10.882;2022-09-23T03:39:09;10.00;99.90
32476;DHT22;18929;48.008;10.882;2022-09-23T03:41:41;9.90;99.90
32476;DHT22;18929;48.008;10.882;2022-09-23T03:44:10;10.00;99.90
32476;DHT22;18929;48.008;10.882;2022-09-23T03:46:37;10.00;99.90
32476;DHT22;18929;48.008;10.882;2022-09-23T03:49:13;10.00;99.90
32476;DHT22;18929;48.008;10.882;2022-09-23T03:51:41;10.00;99.90
32476;DHT22;18929;48.008;10.882;2022-09-23T03:54:08;10.00;99.90
32476;DHT22;18929;48.008;10.882;2022-09-23T03:56:35;10.00;99.90
32476;DHT22;18929;48.008;10.882;2022-09-23T03:59:02;10.00;99.90
32476;DHT22;18929;48.008;10.882;2022-09-23T04:01:29;9.80;99.90
32476;DHT22;18929;48.008;10.882;2022-09-23T04:03:56;9.80;99.90
32476;DHT22;18929;48.008;10.882;2022-09-23T04:06:24;9.90;99.90
32476;DHT22;18929;48.008;10.882;2022-09-23T04:08:51;9.70;99.90
32476;DHT22;18929;48.008;10.882;2022-09-23T04:11:18;9.90;99.90
32476;DHT22;18929;48.008;10.882;2022-09-23T04:13:45;9.90;99.90
32476;DHT22;18929;48.008;10.882;2022-09-23T04:16:12;9.80;99.90
32476;DHT22;18929;48.008;10.882;2022-09-23T04:18:39;9.80;99.90
32476;DHT22;18929;48.008;10.882;2022-09-23T04:21:06;9.80;99.90
32476;DHT22;18929;48.008;10.882;2022-09-23T04:23:34;9.80;99.90
32476;DHT22;18929;48.008;10.882;2022-09-23T04:26:03;9.80;99.90
32476;DHT22;18929;48.008;10.882;2022-09-23T04:28:30;9.80;99.90
32476;DHT22;18929;48.008;10.882;2022-09-23T04:30:57;9.70;99.90
32476;DHT22;18929;48.008;10.882;2022-09-23T04:33:24;9.80;99.90
32476;DHT22;18929;48.008;10.882;2022-09-23T04:35:51;9.70;99.90
32476;DHT22;18929;48.008;10.882;2022-09-23T04:38:18;9.70;99.90
32476;DHT22;18929;48.008;10.882;2022-09-23T04:40:53;9.70;99.90
32476;DHT22;18929;48.008;10.882;2022-09-23T04:43:20;9.70;99.90
32476;DHT22;18929;48.008;10.882;2022-09-23T04:45:56;9.40;99.90
32476;DHT22;18929;48.008;10.882;2022-09-23T04:48:24;9.50;99.90
32476;DHT22;18929;48.008;10.882;2022-09-23T04:50:51;9.60;99.90
32476;DHT22;18929;48.008;10.882;2022-09-23T04:53:18;9.70;99.90
32476;DHT22;18929;48.008;10.882;2022-09-23T04:55:45;9.70;99.90
32476;DHT22;18929;48.008;10.882;2022-09-23T04:58:14;9.60;99.90
32476;DHT22;18929;48.008;10.882;2022-09-23T05:00:41;9.60;99.90
32476;DHT22;18929;48.008;10.882;2022-09-23T05:03:08;9.50;99.90
32476;DHT22;18929;48.008;10.882;2022-09-23T05:05:35;9.50;99.90
32476;DHT22;18929;48.008;10.882;2022-09-23T05:08:02;9.50;99.90
32476;DHT22;18929;48.008;10.882;2022-09-23T05:10:29;9.50;99.90
32476;DHT22;18929;48.008;10.882;2022-09-23T05:12:57;9.60;99.90
32476;DHT22;18929;48.008;10.882;2022-09-23T05:15:25;9.40;99.90
32476;DHT22;18929;48.008;10.882;2022-09-23T05:17:55;9.40;99.90
32476;DHT22;18929;48.008;10.882;2022-09-23T05:20:22;9.30;99.90
32476;DHT22;18929;48.008;10.882;2022-09-23T05:22:49;9.10;99.90
32476;DHT22;18929;48.008;10.882;2022-09-23T05:25:17;9.50;99.90
32476;DHT22;18929;48.008;10.882;2022-09-23T05:27:44;9.10;99.90
32476;DHT22;18929;48.008;10.882;2022-09-23T05:30:11;9.40;99.90
32476;DHT22;18929;48.008;10.882;2022-09-23T05:32:39;9.50;99.90
32476;DHT22;18929;48.008;10.882;2022-09-23T05:35:07;9.50;99.90
32476;DHT22;18929;48.008;10.882;2022-09-23T05:37:34;9.50;99.90
32476;DHT22;18929;48.008;10.882;2022-09-23T05:40:02;8.80;99.90
32476;DHT22;18929;48.008;10.882;2022-09-23T05:42:45;9.00;99.90
32476;DHT22;18929;48.008;10.882;2022-09-23T05:45:19;9.20;99.90
32476;DHT22;18929;48.008;10.882;2022-09-23T05:47:47;9.00;99.90
32476;DHT22;18929;48.008;10.882;2022-09-23T05:50:14;9.10;99.90
32476;DHT22;18929;48.008;10.882;2022-09-23T05:52:43;9.30;99.90
32476;DHT22;18929;48.008;10.882;2022-09-23T05:55:10;9.30;99.90
32476;DHT22;18929;48.008;10.882;2022-09-23T05:57:37;9.40;99.90
32476;DHT22;18929;48.008;10.882;2022-09-23T06:00:05;9.40;99.90
32476;DHT22;18929;48.008;10.882;2022-09-23T06:02:32;9.30;99.90
32476;DHT22;18929;48.008;10.882;2022-09-23T06:05:17;9.30;99.90
32476;DHT22;18929;48.008;10.882;2022-09-23T06:07:45;8.90;99.90
32476;DHT22;18929;48.008;10.882;2022-09-23T06:10:12;8.30;99.90
32476;DHT22;18929;48.008;10.882;2022-09-23T06:12:39;8.50;99.90
32476;DHT22;18929;48.008;10.882;2022-09-23T06:15:07;8.70;99.90
32476;DHT22;18929;48.008;10.882;2022-09-23T06:17:34;8.90;99.90
32476;DHT22;18929;48.008;10.882;2022-09-23T06:20:01;8.50;99.90
32476;DHT22;18929;48.008;10.882;2022-09-23T06:22:30;8.90;99.90
32476;DHT22;18929;48.008;10.882;2022-09-23T06:24:57;8.60;99.90
32476;DHT22;18929;48.008;10.882;2022-09-23T06:27:23;8.20;99.90
32476;DHT22;18929;48.008;10.882;2022-09-23T06:29:51;8.00;99.90
32476;DHT22;18929;48.008;10.882;2022-09-23T06:32:18;7.70;99.90
32476;DHT22;18929;48.008;10.882;2022-09-23T06:34:45;7.90;99.90
32476;DHT22;18929;48.008;10.882;2022-09-23T06:37:12;8.60;99.90
32476;DHT22;18929;48.008;10.882;2022-09-23T06:39:41;8.60;99.90
32476;DHT22;18929;48.008;10.882;2022-09-23T06:42:08;9.00;99.90
32476;DHT22;18929;48.008;10.882;2022-09-23T06:44:43;9.10;99.90
32476;DHT22;18929;48.008;10.882;2022-09-23T06:47:10;9.00;99.90
32476;DHT22;18929;48.008;10.882;2022-09-23T06:49:37;8.50;99.90
32476;DHT22;18929;48.008;10.882;2022-09-23T06:52:04;8.10;99.90
32476;DHT22;18929;48.008;10.882;2022-09-23T06:57:44;7.70;99.90
32476;DHT22;18929;48.008;10.882;2022-09-23T07:00:12;8.30;99.90
32476;DHT22;18929;48.008;10.882;2022-09-23T07:02:39;8.60;99.90
32476;DHT22;18929;48.008;10.882;2022-09-23T07:05:32;8.30;99.90
32476;DHT22;18929;48.008;10.882;2022-09-23T07:07:59;8.40;99.90
32476;DHT22;18929;48.008;10.882;2022-09-23T07:10:26;8.30;99.90
32476;DHT22;18929;48.008;10.882;2022-09-23T07:12:55;8.20;99.90
32476;DHT22;18929;48.008;10.882;2022-09-23T07:15:22;8.30;99.90
32476;DHT22;18929;48.008;10.882;2022-09-23T07:17:49;8.50;99.90
32476;DHT22;18929;48.008;10.882;2022-09-23T07:20:16;8.60;99.90
32476;DHT22;18929;48.008;10.882;2022-09-23T07:22:47;8.60;99.90
32476;DHT22;18929;48.008;10.882;2022-09-23T07:25:14;9.10;99.90
32476;DHT22;18929;48.008;10.882;2022-09-23T07:27:41;9.40;99.90
32476;DHT22;18929;48.008;10.882;2022-09-23T07:30:10;9.60;99.90
32476;DHT22;18929;48.008;10.882;2022-09-23T07:32:37;9.70;99.90
32476;DHT22;18929;48.008;10.882;2022-09-23T07:35:05;9.70;99.90
32476;DHT22;18929;48.008;10.882;2022-09-23T07:37:33;9.80;99.90
32476;DHT22;18929;48.008;10.882;2022-09-23T07:40:00;10.00;99.90
32476;DHT22;18929;48.008;10.882;2022-09-23T07:42:27;10.00;99.90
32476;DHT22;18929;48.008;10.882;2022-09-23T07:44:54;10.10;99.90
32476;DHT22;18929;48.008;10.882;2022-09-23T07:47:23;10.20;99.90
32476;DHT22;18929;48.008;10.882;2022-09-23T07:49:50;10.30;99.90
32476;DHT22;18929;48.008;10.882;2022-09-23T07:52:18;10.30;99.90
32476;DHT22;18929;48.008;10.882;2022-09-23T07:54:46;10.30;99.90
32476;DHT22;18929;48.008;10.882;2022-09-23T07:57:13;10.50;99.90
32476;DHT22;18929;48.008;10.882;2022-09-23T07:59:40;10.50;99.90
32476;DHT22;18929;48.008;10.882;2022-09-23T08:02:09;10.70;99.90
32476;DHT22;18929;48.008;10.882;2022-09-23T08:04:41;10.70;99.90
32476;DHT22;18929;48.008;10.882;2022-09-23T08:10:06;11.00;99.90
32476;DHT22;18929;48.008;10.882;2022-09-23T08:12:34;11.20;99.90
32476;DHT22;18929;48.008;10.882;2022-09-23T08:22:31;11.40;99.90
32476;DHT22;18929;48.008;10.882;2022-09-23T08:24:59;11.60;99.90
32476;DHT22;18929;48.008;10.882;2022-09-23T08:27:26;11.70;99.90
32476;DHT22;18929;48.008;10.882;2022-09-23T08:29:53;11.70;99.90
32476;DHT22;18929;48.008;10.882;2022-09-23T08:32:21;11.60;99.90
32476;DHT22;18929;48.008;10.882;2022-09-23T08:34:48;11.70;99.90
32476;DHT22;18929;48.008;10.882;2022-09-23T08:37:15;12.00;99.90
32476;DHT22;18929;48.008;10.882;2022-09-23T08:39:44;12.10;99.90
32476;DHT22;18929;48.008;10.882;2022-09-23T08:42:15;12.30;99.90
32476;DHT22;18929;48.008;10.882;2022-09-23T08:44:45;12.00;99.90
32476;DHT22;18929;48.008;10.882;2022-09-23T08:47:16;11.50;99.90
32476;DHT22;18929;48.008;10.882;2022-09-23T08:49:54;10.90;99.90
32476;DHT22;18929;48.008;10.882;2022-09-23T08:52:28;11.80;99.90
32476;DHT22;18929;48.008;10.882;2022-09-23T08:54:58;12.50;99.90
32476;DHT22;18929;48.008;10.882;2022-09-23T09:00:52;12.30;99.90
32476;DHT22;18929;48.008;10.882;2022-09-23T09:03:23;11.80;99.90
32476;DHT22;18929;48.008;10.882;2022-09-23T09:05:51;12.60;99.90
32476;DHT22;18929;48.008;10.882;2022-09-23T09:08:22;12.70;99.90
32476;DHT22;18929;48.008;10.882;2022-09-23T09:10:53;12.40;99.90
32476;DHT22;18929;48.008;10.882;2022-09-23T09:13:27;12.80;99.90
32476;DHT22;18929;48.008;10.882;2022-09-23T09:16:16;12.00;99.90
32476;DHT22;18929;48.008;10.882;2022-09-23T09:18:59;12.60;99.90
32476;DHT22;18929;48.008;10.882;2022-09-23T09:21:31;13.00;99.90
32476;DHT22;18929;48.008;10.882;2022-09-23T09:24:07;12.90;99.90
32476;DHT22;18929;48.008;10.882;2022-09-23T09:26:43;12.70;99.90
32476;DHT22;18929;48.008;10.882;2022-09-23T09:29:13;12.10;99.90
32476;DHT22;18929;48.008;10.882;2022-09-23T09:31:53;11.50;99.90
32476;DHT22;18929;48.008;10.882;2022-09-23T09:34:28;11.50;99.90
32476;DHT22;18929;48.008;10.882;2022-09-23T09:37:01;11.00;99.90
32476;DHT22;18929;48.008;10.882;2022-09-23T09:39:31;11.70;99.90
32476;DHT22;18929;48.008;10.882;2022-09-23T09:42:00;10.60;99.90
32476;DHT22;18929;48.008;10.882;2022-09-23T09:44:32;12.20;99.90
32476;DHT22;18929;48.008;10.882;2022-09-23T09:47:15;12.30;99.90
32476;DHT22;18929;48.008;10.882;2022-09-23T09:49:48;12.10;99.90
32476;DHT22;18929;48.008;10.882;2022-09-23T09:52:22;12.30;99.90
32476;DHT22;18929;48.008;10.882;2022-09-23T09:54:51;12.10;99.90
32476;DHT22;18929;48.008;10.882;2022-09-23T09:57:27;12.50;99.90
32476;DHT22;18929;48.008;10.882;2022-09-23T09:59:56;13.50;99.90
32476;DHT22;18929;48.008;10.882;2022-09-23T10:02:27;13.60;99.90
32476;DHT22;18929;48.008;10.882;2022-09-23T10:04:59;12.90;99.90
32476;DHT22;18929;48.008;10.882;2022-09-23T10:07:29;13.00;99.90
32476;DHT22;18929;48.008;10.882;2022-09-23T10:09:56;13.00;99.90
32476;DHT22;18929;48.008;10.882;2022-09-23T10:12:42;13.20;99.90
32476;DHT22;18929;48.008;10.882;2022-09-23T10:15:26;13.00;99.90
32476;DHT22;18929;48.008;10.882;2022-09-23T10:17:53;13.00;99.90
32476;DHT22;18929;48.008;10.882;2022-09-23T10:20:20;12.80;99.90
32476;DHT22;18929;48.008;10.882;2022-09-23T10:22:47;13.70;99.90
32476;DHT22;18929;48.008;10.882;2022-09-23T10:25:18;13.30;99.90
32476;DHT22;18929;48.008;10.882;2022-09-23T10:27:47;12.50;99.90
32476;DHT22;18929;48.008;10.882;2022-09-23T10:30:21;14.20;99.90
32476;DHT22;18929;48.008;10.882;2022-09-23T10:32:49;14.30;99.90
32476;DHT22;18929;48.008;10.882;2022-09-23T10:35:18;13.80;99.90
32476;DHT22;18929;48.008;10.882;2022-09-23T10:37:49;13.00;99.90
32476;DHT22;18929;48.008;10.882;2022-09-23T10:40:18;12.60;99.90
32476;DHT22;18929;48.008;10.882;2022-09-23T10:43:29;12.90;99.90
32476;DHT22;18929;48.008;10.882;2022-09-23T10:46:20;13.30;99.90
32476;DHT22;18929;48.008;10.882;2022-09-23T10:49:25;13.60;99.90
32476;DHT22;18929;48.008;10.882;2022-09-23T10:52:34;14.80;99.90
32476;DHT22;18929;48.008;10.882;2022-09-23T10:55:14;13.90;99.90
32476;DHT22;18929;48.008;10.882;2022-09-23T10:57:58;13.00;99.90
32476;DHT22;18929;48.008;10.882;2022-09-23T11:00:36;12.80;99.90
32476;DHT22;18929;48.008;10.882;2022-09-23T11:03:28;12.50;99.90
32476;DHT22;18929;48.008;10.882;2022-09-23T11:06:05;14.80;99.90
32476;DHT22;18929;48.008;10.882;2022-09-23T11:08:49;14.80;99.90
32476;DHT22;18929;48.008;10.882;2022-09-23T11:11:27;13.70;99.90
32476;DHT22;18929;48.008;10.882;2022-09-23T11:17:20;13.80;99.90
32476;DHT22;18929;48.008;10.882;2022-09-23T11:20:24;14.80;99.90
32476;DHT22;18929;48.008;10.882;2022-09-23T11:23:05;14.40;99.90
32476;DHT22;18929;48.008;10.882;2022-09-23T11:25:44;15.30;99.90
32476;DHT22;18929;48.008;10.882;2022-09-23T11:28:24;14.60;99.90
32476;DHT22;18929;48.008;10.882;2022-09-23T11:31:02;15.00;99.90
32476;DHT22;18929;48.008;10.882;2022-09-23T11:33:43;15.10;99.90
32476;DHT22;18929;48.008;10.882;2022-09-23T11:36:23;13.40;99.90
32476;DHT22;18929;48.008;10.882;2022-09-23T11:39:10;14.00;99.90
32476;DHT22;18929;48.008;10.882;2022-09-23T11:41:39;15.40;99.90
32476;DHT22;18929;48.008;10.882;2022-09-23T11:44:11;14.90;99.90
32476;DHT22;18929;48.008;10.882;2022-09-23T11:46:43;13.60;99.90
32476;DHT22;18929;48.008;10.882;2022-09-23T11:49:17;13.10;99.90
32476;DHT22;18929;48.008;10.882;2022-09-23T11:51:55;14.50;99.90
32476;DHT22;18929;48.008;10.882;2022-09-23T11:54:30;14.10;99.90
32476;DHT22;18929;48.008;10.882;2022-09-23T11:57:03;14.20;99.90
32476;DHT22;18929;48.008;10.882;2022-09-23T11:59:35;15.00;99.90
32476;DHT22;18929;48.008;10.882;2022-09-23T12:02:04;14.60;99.90
32476;DHT22;18929;48.008;10.882;2022-09-23T12:04:42;15.80;99.90
32476;DHT22;18929;48.008;10.882;2022-09-23T12:07:13;16.20;99.90
32476;DHT22;18929;48.008;10.882;2022-09-23T12:09:54;16.20;99.90
32476;DHT22;18929;48.008;10.882;2022-09-23T12:12:27;16.10;99.90
32476;DHT22;18929;48.008;10.882;2022-09-23T12:15:09;16.20;99.90
32476;DHT22;18929;48.008;10.882;2022-09-23T12:17:56;15.90;99.90
32476;DHT22;18929;48.008;10.882;2022-09-23T12:20:41;15.50;99.90
32476;DHT22;18929;48.008;10.882;2022-09-23T12:23:25;15.20;99.90
32476;DHT22;18929;48.008;10.882;2022-09-23T12:25:56;15.30;99.90
32476;DHT22;18929;48.008;10.882;2022-09-23T12:28:27;15.30;99.90
32476;DHT22;18929;48.008;10.882;2022-09-23T12:31:01;15.20;99.90
32476;DHT22;18929;48.008;10.882;2022-09-23T12:33:36;14.40;99.90
32476;DHT22;18929;48.008;10.882;2022-09-23T12:36:28;15.50;99.90
32476;DHT22;18929;48.008;10.882;2022-09-23T12:39:03;15.00;99.90
32476;DHT22;18929;48.008;10.882;2022-09-23T12:41:34;14.90;99.90
32476;DHT22;18929;48.008;10.882;2022-09-23T12:44:28;15.50;99.90
32476;DHT22;18929;48.008;10.882;2022-09-23T12:56:21;15.40;99.90
32476;DHT22;18929;48.008;10.882;2022-09-23T12:59:13;15.20;99.90
32476;DHT22;18929;48.008;10.882;2022-09-23T13:01:46;16.20;99.90
32476;DHT22;18929;48.008;10.882;2022-09-23T13:04:34;16.40;99.90
32476;DHT22;18929;48.008;10.882;2022-09-23T13:07:26;16.30;99.90
32476;DHT22;18929;48.008;10.882;2022-09-23T13:10:27;16.20;99.90
32476;DHT22;18929;48.008;10.882;2022-09-23T13:12:57;16.40;99.90
32476;DHT22;18929;48.008;10.882;2022-09-23T13:15:31;16.30;99.90
32476;DHT22;18929;48.008;10.882;2022-09-23T13:18:23;17.30;99.90
32476;DHT22;18929;48.008;10.882;2022-09-23T13:20:51;17.50;99.90
32476;DHT22;18929;48.008;10.882;2022-09-23T13:23:25;17.60;99.90
32476;DHT22;18929;48.008;10.882;2022-09-23T13:25:55;17.50;99.90
32476;DHT22;18929;48.008;10.882;2022-09-23T13:28:28;17.70;99.90
32476;DHT22;18929;48.008;10.882;2022-09-23T13:31:05;17.50;99.90
32476;DHT22;18929;48.008;10.882;2022-09-23T13:33:44;17.60;99.90
32476;DHT22;18929;48.008;10.882;2022-09-23T13:36:17;17.50;99.90
32476;DHT22;18929;48.008;10.882;2022-09-23T13:38:58;17.50;99.90
32476;DHT22;18929;48.008;10.882;2022-09-23T13:44:56;17.90;99.90
32476;DHT22;18929;48.008;10.882;2022-09-23T13:47:30;18.00;99.90
32476;DHT22;18929;48.008;10.882;2022-09-23T13:49:57;17.80;99.90
32476;DHT22;18929;48.008;10.882;2022-09-23T13:52:25;17.90;99.90
32476;DHT22;18929;48.008;10.882;2022-09-23T13:54:54;18.00;99.90
32476;DHT22;18929;48.008;10.882;2022-09-23T13:57:26;18.10;99.90
32476;DHT22;18929;48.008;10.882;2022-09-23T13:59:59;17.90;99.90
32476;DHT22;18929;48.008;10.882;2022-09-23T14:02:26;17.90;99.90
32476;DHT22;18929;48.008;10.882;2022-09-23T14:05:09;18.00;99.90
32476;DHT22;18929;48.008;10.882;2022-09-23T14:07:49;18.20;99.90
32476;DHT22;18929;48.008;10.882;2022-09-23T14:10:35;18.20;99.90
32476;DHT22;18929;48.008;10.882;2022-09-23T14:13:23;18.10;99.90
32476;DHT22;18929;48.008;10.882;2022-09-23T14:15:56;18.10;99.90
32476;DHT22;18929;48.008;10.882;2022-09-23T14:18:31;18.30;99.90
32476;DHT22;18929;48.008;10.882;2022-09-23T14:21:04;18.10;99.90
32476;DHT22;18929;48.008;10.882;2022-09-23T14:26:51;18.20;99.90
32476;DHT22;18929;48.008;10.882;2022-09-23T14:29:22;18.50;99.90
32476;DHT22;18929;48.008;10.882;2022-09-23T14:31:53;18.20;99.90
32476;DHT22;18929;48.008;10.882;2022-09-23T14:34:45;18.50;99.90
32476;DHT22;18929;48.008;10.882;2022-09-23T14:37:20;18.50;99.90
32476;DHT22;18929;48.008;10.882;2022-09-23T14:40:10;18.30;99.90
32476;DHT22;18929;48.008;10.882;2022-09-23T14:42:40;18.30;99.90
32476;DHT22;18929;48.008;10.882;2022-09-23T14:45:13;18.30;99.90
32476;DHT22;18929;48.008;10.882;2022-09-23T14:47:45;18.30;99.90
32476;DHT22;18929;48.008;10.882;2022-09-23T14:50:19;18.40;99.90
32476;DHT22;18929;48.008;10.882;2022-09-23T14:53:33;18.20;99.90
32476;DHT22;18929;48.008;10.882;2022-09-23T14:56:13;18.30;99.90
32476;DHT22;18929;48.008;10.882;2022-09-23T14:58:45;18.40;99.90
32476;DHT22;18929;48.008;10.882;2022-09-23T15:01:36;18.30;99.90
32476;DHT22;18929;48.008;10.882;2022-09-23T15:04:17;18.50;99.90
32476;DHT22;18929;48.008;10.882;2022-09-23T15:06:56;18.70;99.90
32476;DHT22;18929;48.008;10.882;2022-09-23T15:09:25;18.50;99.90
32476;DHT22;18929;48.008;10.882;2022-09-23T15:11:56;18.40;99.90
32476;DHT22;18929;48.008;10.882;2022-09-23T15:14:26;18.40;99.90
32476;DHT22;18929;48.008;10.882;2022-09-23T15:17:15;18.50;99.90
32476;DHT22;18929;48.008;10.882;2022-09-23T15:19:53;18.70;99.90
32476;DHT22;18929;48.008;10.882;2022-09-23T15:22:24;19.00;99.90
32476;DHT22;18929;48.008;10.882;2022-09-23T15:24:53;19.10;99.90
32476;DHT22;18929;48.008;10.882;2022-09-23T15:27:31;18.70;99.90
32476;DHT22;18929;48.008;10.882;2022-09-23T15:30:13;18.70;99.90
32476;DHT22;18929;48.008;10.882;2022-09-23T15:32:46;18.70;99.90
32476;DHT22;18929;48.008;10.882;2022-09-23T15:35:26;18.50;99.90
32476;DHT22;18929;48.008;10.882;2022-09-23T15:37:58;18.70;99.90
32476;DHT22;18929;48.008;10.882;2022-09-23T15:40:31;18.80;99.90
32476;DHT22;18929;48.008;10.882;2022-09-23T15:43:01;18.80;99.90
32476;DHT22;18929;48.008;10.882;2022-09-23T15:45:34;18.60;99.90
32476;DHT22;18929;48.008;10.882;2022-09-23T15:48:04;18.50;99.90
32476;DHT22;18929;48.008;10.882;2022-09-23T15:50:34;18.50;99.90
32476;DHT22;18929;48.008;10.882;2022-09-23T15:53:02;18.60;99.90
32476;DHT22;18929;48.008;10.882;2022-09-23T15:55:30;18.50;99.90
32476;DHT22;18929;48.008;10.882;2022-09-23T15:57:58;18.50;99.90
32476;DHT22;18929;48.008;10.882;2022-09-23T16:00:25;18.40;99.90
32476;DHT22;18929;48.008;10.882;2022-09-23T16:02:52;18.60;99.90
32476;DHT22;18929;48.008;10.882;2022-09-23T16:05:22;18.70;99.90
32476;DHT22;18929;48.008;10.882;2022-09-23T16:07:52;18.90;99.90
32476;DHT22;18929;48.008;10.882;2022-09-23T16:10:21;18.80;99.90
32476;DHT22;18929;48.008;10.882;2022-09-23T16:12:48;18.70;99.90
32476;DHT22;18929;48.008;10.882;2022-09-23T16:15:19;18.60;99.90
32476;DHT22;18929;48.008;10.882;2022-09-23T16:17:46;18.80;99.90
32476;DHT22;18929;48.008;10.882;2022-09-23T16:20:53;19.00;99.90
32476;DHT22;18929;48.008;10.882;2022-09-23T16:23:47;19.20;99.90
32476;DHT22;18929;48.008;10.882;2022-09-23T16:26:25;19.30;99.90
32476;DHT22;18929;48.008;10.882;2022-09-23T16:33:15;19.40;99.90
32476;DHT22;18929;48.008;10.882;2022-09-23T16:36:42;19.50;99.90
32476;DHT22;18929;48.008;10.882;2022-09-23T16:58:13;19.60;99.90
32476;DHT22;18929;48.008;10.882;2022-09-23T17:00:40;19.60;99.90